Portada
METAR-TAF:

METAR-TAF

Aeroports :

Changsha, Xina

latitud: 28-11N, longitud: 113-13E, altitud: 66 m

Observació

L'informe es va fer fa 31 minuts, a les 12:00 UTC
Vent 4 kt del Sud
Temperatura 25°C
Humitat 89%
Pressió 1004 hPa
Visibilitat 10 km o més
sense núvols per sota de 1500 mi sense presència de cumulonimbus.

METAR: ZGHA 031200Z 18002MPS CAVOK 25/23 Q1004 NOSIG

Hora: 20:31 (12:31 UTC)

Pronòstic

L'informe es va fer fa 3 hores i 29 minuts, a les 09:02 UTC
Pronòstic vàlid del 03 a les 12 UTC al 04 a les 12 UTC
Vent 6 kt del Sud
Visibilitat: 5000 m
Núvols disperses a una alçada de 4000 ft
boirina

TAF: ZGHA 030902Z 0312/0412 17003MPS 5000 BR SCT040 TX28/0407Z TN22/0322Z

Observacions i pronòstics meteorològics de més de 4000 aeroports (METAR i TAF).

Les estacions disponibles són els punts grocs i vermells al mapa.

Posi el ratolí al punt desitjat per veure el nom de l'estació.

Feu clic per veure les observacions i els pronòstics meteorològics.

Per canviar el mapa: feu clic els botons verds amb una creu de color negre per apropar; al botó verd amb un guió per allunyar la imatge; o en les fletxes verdes per a mapes adjacents.


METAR-TAF: